createdAt,value
2022-12-20T00:00:15.262Z,0.43
2022-12-20T00:02:44.241Z,0.43
2022-12-20T00:05:12.583Z,0.42
2022-12-20T00:07:40.867Z,0.42
2022-12-20T00:10:10.040Z,0.36
2022-12-20T00:12:39.977Z,0.38
2022-12-20T00:15:10.020Z,0.40
2022-12-20T00:17:39.491Z,0.40
2022-12-20T00:20:09.864Z,0.42
2022-12-20T00:22:38.186Z,0.45
2022-12-20T00:25:07.511Z,0.46
2022-12-20T00:27:35.708Z,0.47
2022-12-20T00:30:07.762Z,0.48
2022-12-20T00:32:36.319Z,0.48
2022-12-20T00:35:04.843Z,0.45
2022-12-20T00:37:33.209Z,0.49
2022-12-20T00:40:01.662Z,0.46
2022-12-20T00:42:29.907Z,0.45
2022-12-20T00:44:58.094Z,0.47
2022-12-20T00:47:28.396Z,0.48
2022-12-20T00:49:56.884Z,0.47
2022-12-20T00:52:25.593Z,0.43
2022-12-20T00:54:54.088Z,0.43
2022-12-20T00:57:24.248Z,0.48
2022-12-20T00:59:52.639Z,0.43
2022-12-20T01:02:21.219Z,0.40
2022-12-20T01:04:51.841Z,0.43
2022-12-20T01:07:23.286Z,0.37
2022-12-20T01:09:52.036Z,0.32
2022-12-20T01:12:20.270Z,0.23
2022-12-20T01:14:48.935Z,0.16
2022-12-20T01:17:19.877Z,0.19
2022-12-20T01:19:48.302Z,0.18
2022-12-20T01:22:17.999Z,0.22
2022-12-20T01:24:46.256Z,0.32
2022-12-20T01:27:14.971Z,0.32
2022-12-20T01:29:43.879Z,0.34
2022-12-20T01:32:14.298Z,0.34
2022-12-20T01:34:42.585Z,0.37
2022-12-20T01:37:11.308Z,0.36
2022-12-20T01:39:41.262Z,0.34
2022-12-20T01:42:14.923Z,0.34
2022-12-20T01:44:56.444Z,0.29
2022-12-20T01:47:27.435Z,0.29
2022-12-20T01:49:58.703Z,0.28
2022-12-20T01:52:33.157Z,0.30
2022-12-20T01:55:08.298Z,0.29
2022-12-20T01:57:42.027Z,0.30
2022-12-20T02:00:12.015Z,0.30
2022-12-20T02:02:45.012Z,0.33
2022-12-20T02:05:15.952Z,0.34
2022-12-20T02:07:49.592Z,0.34
2022-12-20T02:10:22.460Z,0.36
2022-12-20T02:12:57.635Z,0.33
2022-12-20T02:15:36.506Z,0.33
2022-12-20T02:18:17.853Z,0.36
2022-12-20T02:21:16.251Z,0.33
2022-12-20T02:24:36.173Z,0.30
2022-12-20T02:27:34.151Z,0.26
2022-12-20T02:30:08.085Z,0.25
2022-12-20T02:32:41.540Z,0.25
2022-12-20T02:35:11.575Z,0.24
2022-12-20T02:37:49.620Z,0.19
2022-12-20T02:40:22.996Z,0.19
2022-12-20T02:42:56.740Z,0.20
2022-12-20T02:45:28.396Z,0.19
2022-12-20T02:48:00.612Z,0.33
2022-12-20T02:50:37.499Z,0.40
2022-12-20T02:53:07.938Z,0.38
2022-12-20T02:55:46.772Z,0.39
2022-12-20T02:58:29.446Z,0.38
2022-12-20T03:01:05.105Z,0.35
2022-12-20T03:03:35.239Z,0.33
2022-12-20T03:06:04.695Z,0.33
2022-12-20T03:08:32.946Z,0.38
2022-12-20T03:11:02.040Z,0.36
2022-12-20T03:13:33.034Z,0.35
2022-12-20T03:16:09.431Z,0.36
2022-12-20T03:18:41.257Z,0.36
2022-12-20T03:21:09.715Z,0.36
2022-12-20T03:23:38.069Z,0.38
2022-12-20T03:26:07.500Z,0.42
2022-12-20T03:28:41.551Z,0.43
2022-12-20T03:31:12.987Z,0.45
2022-12-20T03:33:49.798Z,0.50
2022-12-20T03:36:23.895Z,0.49
2022-12-20T03:38:56.930Z,0.53
2022-12-20T03:41:28.727Z,0.52
2022-12-20T03:43:56.787Z,0.54
2022-12-20T03:46:28.190Z,0.55
2022-12-20T03:48:56.945Z,0.60
2022-12-20T03:51:25.328Z,0.66
2022-12-20T03:53:53.994Z,0.72
2022-12-20T03:56:25.626Z,0.73
2022-12-20T03:58:54.429Z,0.78
2022-12-20T04:01:25.435Z,0.76
2022-12-20T04:03:58.138Z,0.78
2022-12-20T04:06:26.409Z,0.78
2022-12-20T04:08:56.015Z,0.76
2022-12-20T04:11:31.240Z,0.71
2022-12-20T04:14:13.377Z,0.74
2022-12-20T04:16:41.597Z,0.76
2022-12-20T04:19:12.936Z,0.77
2022-12-20T04:21:46.582Z,0.78
2022-12-20T04:24:18.973Z,0.80
2022-12-20T04:26:57.589Z,0.76
2022-12-20T04:29:26.496Z,0.78
2022-12-20T04:31:54.845Z,0.78
2022-12-20T04:34:25.531Z,0.79
2022-12-20T04:36:55.140Z,0.87
2022-12-20T04:39:33.678Z,0.93
2022-12-20T04:42:18.909Z,0.98
2022-12-20T04:44:47.831Z,1.05
2022-12-20T04:47:20.318Z,1.13
2022-12-20T04:49:49.937Z,1.08
2022-12-20T04:52:33.393Z,1.01
2022-12-20T04:55:01.688Z,0.97
2022-12-20T04:57:33.169Z,0.93
2022-12-20T05:00:05.097Z,0.88
2022-12-20T05:02:35.577Z,0.84
2022-12-20T05:05:11.064Z,0.83
2022-12-20T05:07:46.942Z,0.82
2022-12-20T05:10:16.068Z,0.84
2022-12-20T05:12:45.312Z,0.82
2022-12-20T05:15:21.983Z,0.89
2022-12-20T05:17:50.718Z,0.96
2022-12-20T05:20:22.250Z,1.01
2022-12-20T05:23:07.906Z,1.16
2022-12-20T05:26:04.570Z,1.33
2022-12-20T05:28:36.363Z,1.41
2022-12-20T05:31:05.194Z,1.56
2022-12-20T05:33:36.438Z,1.53
2022-12-20T05:36:07.755Z,1.50
2022-12-20T05:38:36.451Z,1.48
2022-12-20T05:41:10.976Z,1.46
2022-12-20T05:43:39.541Z,1.44
2022-12-20T05:46:08.657Z,1.41
2022-12-20T05:48:52.462Z,1.33
2022-12-20T05:51:24.007Z,1.39
2022-12-20T05:54:02.980Z,1.36
2022-12-20T05:56:54.351Z,1.35
2022-12-20T05:59:28.451Z,1.33
2022-12-20T06:01:59.841Z,1.31
2022-12-20T06:04:28.316Z,1.30
2022-12-20T06:06:59.520Z,1.26
2022-12-20T06:09:30.410Z,1.23
2022-12-20T06:12:07.071Z,1.23
2022-12-20T06:14:36.468Z,1.22
2022-12-20T06:17:04.956Z,1.22
2022-12-20T06:19:37.737Z,1.21
2022-12-20T06:22:10.588Z,1.24
2022-12-20T06:24:52.182Z,1.26
2022-12-20T06:27:25.840Z,1.33
2022-12-20T06:30:05.496Z,1.42
2022-12-20T06:32:46.029Z,1.53
2022-12-20T06:35:16.211Z,1.61
2022-12-20T06:37:48.462Z,1.68
2022-12-20T06:40:17.907Z,1.91
2022-12-20T06:42:46.126Z,2.42
2022-12-20T06:45:16.357Z,2.69
2022-12-20T06:47:46.572Z,3.00
2022-12-20T06:50:15.709Z,3.34
2022-12-20T06:52:43.879Z,3.65
2022-12-20T06:55:14.442Z,3.91
2022-12-20T06:57:44.129Z,4.03
2022-12-20T07:00:15.032Z,4.33
2022-12-20T07:02:45.604Z,4.50
2022-12-20T07:05:14.408Z,4.51
2022-12-20T07:07:45.593Z,4.53
2022-12-20T07:10:15.351Z,4.55
2022-12-20T07:15:33.232Z,4.58
2022-12-20T07:18:02.022Z,4.64
2022-12-20T07:20:31.893Z,4.54
2022-12-20T07:23:02.848Z,4.62
2022-12-20T07:25:32.485Z,4.58
2022-12-20T07:28:00.981Z,4.55
2022-12-20T07:30:29.429Z,4.51
2022-12-20T07:33:00.642Z,4.51
2022-12-20T07:35:30.558Z,4.50
2022-12-20T07:37:58.943Z,4.54
2022-12-20T07:40:30.193Z,4.67
2022-12-20T07:43:01.002Z,4.69
2022-12-20T07:45:29.505Z,4.65
2022-12-20T07:48:06.784Z,4.70
2022-12-20T07:50:39.756Z,4.65
2022-12-20T07:53:10.064Z,4.66
2022-12-20T07:55:42.243Z,4.64
2022-12-20T07:58:13.968Z,4.64
2022-12-20T08:00:42.423Z,4.71
2022-12-20T08:03:16.304Z,4.93
2022-12-20T08:05:47.560Z,4.92
2022-12-20T08:08:18.052Z,5.11
2022-12-20T08:10:46.834Z,5.06
2022-12-20T08:13:17.249Z,5.01
2022-12-20T08:15:45.993Z,5.16
2022-12-20T08:18:18.074Z,5.21
2022-12-20T08:20:46.474Z,5.20
2022-12-20T08:23:15.732Z,5.37
2022-12-20T08:25:44.703Z,5.52
2022-12-20T08:28:13.156Z,5.64
2022-12-20T08:30:42.744Z,5.89
2022-12-20T08:33:13.679Z,5.96
2022-12-20T08:35:42.221Z,6.22
2022-12-20T08:38:13.739Z,6.20
2022-12-20T08:40:50.857Z,6.60
2022-12-20T08:43:18.997Z,6.63
2022-12-20T08:45:53.887Z,6.66
2022-12-20T08:48:23.761Z,6.71
2022-12-20T08:50:56.922Z,6.82
2022-12-20T08:53:27.171Z,6.83
2022-12-20T08:55:55.352Z,6.80
2022-12-20T08:58:23.774Z,6.81
2022-12-20T09:00:55.000Z,7.06
2022-12-20T09:03:24.389Z,6.99
2022-12-20T09:05:52.846Z,7.21
2022-12-20T09:08:21.301Z,7.22
2022-12-20T09:10:52.550Z,7.43
2022-12-20T09:13:21.553Z,7.43
2022-12-20T09:15:50.371Z,7.58
2022-12-20T09:18:21.609Z,7.50
2022-12-20T09:20:52.878Z,7.53
2022-12-20T09:23:22.631Z,7.58
2022-12-20T09:25:53.969Z,7.52
2022-12-20T09:28:23.245Z,7.66
2022-12-20T09:30:52.200Z,7.61
2022-12-20T09:33:23.749Z,7.77
2022-12-20T09:35:53.507Z,7.84
2022-12-20T09:38:22.553Z,7.95
2022-12-20T09:40:55.373Z,8.07
2022-12-20T09:43:25.081Z,8.19
2022-12-20T09:45:58.507Z,8.31
2022-12-20T09:48:39.399Z,8.28
2022-12-20T09:51:21.308Z,8.30
2022-12-20T09:54:01.952Z,8.45
2022-12-20T09:56:38.311Z,8.59
2022-12-20T09:59:13.940Z,8.73
2022-12-20T10:01:46.236Z,8.81
2022-12-20T10:04:24.062Z,8.99
2022-12-20T10:07:13.163Z,8.83
2022-12-20T10:09:57.472Z,8.66
2022-12-20T10:12:38.172Z,8.54
2022-12-20T10:15:18.900Z,8.50
2022-12-20T10:18:04.276Z,8.38
2022-12-20T10:20:44.201Z,8.44
2022-12-20T10:23:29.357Z,8.42
2022-12-20T10:26:01.057Z,8.48
2022-12-20T10:28:31.627Z,8.45
2022-12-20T10:31:02.545Z,8.43
2022-12-20T10:33:32.368Z,8.35
2022-12-20T10:36:25.775Z,8.32
2022-12-20T10:38:56.889Z,8.29
2022-12-20T10:41:29.014Z,8.28
2022-12-20T10:44:01.059Z,8.28
2022-12-20T10:46:43.131Z,8.37
2022-12-20T10:49:41.344Z,8.34
2022-12-20T10:52:17.602Z,8.42
2022-12-20T10:54:47.527Z,8.37
2022-12-20T10:57:20.919Z,8.58
2022-12-20T10:59:52.790Z,8.59
2022-12-20T11:02:39.434Z,8.84
2022-12-20T11:05:24.417Z,8.93
2022-12-20T11:10:47.261Z,9.14
2022-12-20T11:13:25.843Z,9.19
2022-12-20T11:15:57.759Z,9.13
2022-12-20T11:18:39.331Z,9.16
2022-12-20T11:21:27.453Z,9.16
2022-12-20T11:24:09.021Z,9.15
2022-12-20T11:26:53.337Z,9.08
2022-12-20T11:29:45.118Z,9.06
2022-12-20T11:32:28.935Z,9.23
2022-12-20T11:35:10.501Z,9.22
2022-12-20T11:37:51.004Z,9.20
2022-12-20T11:40:30.358Z,9.18
2022-12-20T11:43:27.472Z,8.98
2022-12-20T11:46:08.849Z,8.94
2022-12-20T11:48:56.063Z,8.94
2022-12-20T11:51:26.991Z,9.01
2022-12-20T11:54:01.507Z,9.02
2022-12-20T11:56:43.581Z,9.07
2022-12-20T11:59:22.045Z,9.02
2022-12-20T12:01:57.829Z,9.03
2022-12-20T12:04:28.813Z,8.98
2022-12-20T12:07:01.583Z,8.96
2022-12-20T12:09:35.028Z,8.89
2022-12-20T12:12:10.923Z,8.83
2022-12-20T12:14:52.045Z,8.82
2022-12-20T12:17:30.764Z,8.86
2022-12-20T12:20:16.806Z,8.84
2022-12-20T12:22:49.069Z,8.77
2022-12-20T12:25:19.617Z,8.85
2022-12-20T12:27:49.322Z,8.79
2022-12-20T12:30:17.902Z,8.79
2022-12-20T12:32:54.148Z,8.78
2022-12-20T12:35:47.759Z,8.75
2022-12-20T12:38:48.382Z,8.89
2022-12-20T12:41:53.225Z,8.88
2022-12-20T12:44:42.268Z,8.89
2022-12-20T12:47:18.120Z,8.92
2022-12-20T12:49:52.418Z,8.86
2022-12-20T12:52:35.774Z,8.89
2022-12-20T12:55:04.827Z,8.94
2022-12-20T12:58:14.747Z,9.14
2022-12-20T13:00:53.367Z,9.17
2022-12-20T13:03:40.987Z,9.16
2022-12-20T13:06:44.528Z,9.06
2022-12-20T13:09:22.256Z,9.08
2022-12-20T13:12:00.371Z,9.16
2022-12-20T13:14:53.322Z,9.29
2022-12-20T13:17:50.851Z,9.37
2022-12-20T13:20:22.649Z,9.40
2022-12-20T13:23:17.755Z,9.36
2022-12-20T13:25:48.181Z,9.34
2022-12-20T13:28:45.159Z,9.24
2022-12-20T13:31:34.762Z,9.24
2022-12-20T13:34:28.452Z,9.29
2022-12-20T13:37:00.171Z,9.29
2022-12-20T13:39:34.357Z,9.26
2022-12-20T13:42:22.227Z,9.29
2022-12-20T13:44:53.283Z,9.22
2022-12-20T13:47:38.499Z,9.20
2022-12-20T13:50:35.458Z,9.14
2022-12-20T13:53:06.793Z,9.06
2022-12-20T13:55:42.566Z,9.02
2022-12-20T13:58:20.131Z,8.91
2022-12-20T14:00:51.288Z,8.79
2022-12-20T14:03:25.182Z,8.63
2022-12-20T14:06:03.280Z,8.62
2022-12-20T14:08:34.500Z,8.56
2022-12-20T14:11:12.220Z,8.51
2022-12-20T14:13:41.277Z,8.41
2022-12-20T14:16:14.342Z,8.50
2022-12-20T14:18:44.355Z,8.38
2022-12-20T14:21:14.802Z,8.33
2022-12-20T14:23:45.807Z,8.40
2022-12-20T14:26:17.306Z,8.42
2022-12-20T14:28:48.268Z,8.51
2022-12-20T14:31:30.288Z,8.56
2022-12-20T14:34:04.599Z,8.60
2022-12-20T14:36:36.000Z,8.75
2022-12-20T14:39:24.391Z,8.77
2022-12-20T14:42:01.624Z,8.80
2022-12-20T14:44:32.104Z,8.78
2022-12-20T14:47:03.200Z,8.77
2022-12-20T14:49:33.985Z,8.71
2022-12-20T14:52:16.653Z,8.73
2022-12-20T14:57:41.634Z,8.61
2022-12-20T15:00:16.597Z,8.59
2022-12-20T15:02:52.914Z,8.66
2022-12-20T15:05:55.890Z,8.58
2022-12-20T15:08:28.262Z,8.40
2022-12-20T15:11:00.168Z,8.38
2022-12-20T15:13:34.671Z,8.38
2022-12-20T15:16:05.406Z,8.33
2022-12-20T15:18:34.281Z,8.37
2022-12-20T15:21:06.711Z,8.34
2022-12-20T15:23:37.565Z,8.29
2022-12-20T15:26:07.123Z,8.49
2022-12-20T15:28:36.123Z,8.38
2022-12-20T15:31:06.590Z,8.30
2022-12-20T15:33:36.733Z,8.28
2022-12-20T15:36:05.226Z,8.41
2022-12-20T15:39:03.560Z,8.40
2022-12-20T15:41:26.232Z,8.29
2022-12-20T15:43:58.800Z,8.25
2022-12-20T15:46:27.870Z,8.14
2022-12-20T15:48:56.625Z,8.08
2022-12-20T15:51:31.359Z,8.13
2022-12-20T15:54:01.749Z,7.96
2022-12-20T15:56:31.776Z,7.98
2022-12-20T15:59:17.843Z,7.93
2022-12-20T16:01:52.148Z,7.85
2022-12-20T16:04:22.011Z,7.85
2022-12-20T16:06:53.632Z,7.81
2022-12-20T16:09:25.775Z,7.75
2022-12-20T16:11:57.868Z,7.72
2022-12-20T16:14:27.325Z,7.74
2022-12-20T16:16:58.281Z,7.85
2022-12-20T16:19:28.949Z,8.03
2022-12-20T16:21:57.475Z,8.03
2022-12-20T16:24:26.083Z,8.33
2022-12-20T16:26:55.957Z,8.23
2022-12-20T16:29:24.074Z,8.24
2022-12-20T16:31:52.558Z,8.23
2022-12-20T16:34:21.881Z,8.35
2022-12-20T16:36:50.896Z,8.38
2022-12-20T16:39:20.870Z,8.36
2022-12-20T16:41:52.973Z,8.44
2022-12-20T16:44:22.963Z,8.51
2022-12-20T16:46:52.006Z,8.49
2022-12-20T16:49:21.155Z,8.57
2022-12-20T16:51:50.866Z,8.56
2022-12-20T16:54:21.734Z,8.50
2022-12-20T16:56:56.104Z,8.58
2022-12-20T16:59:26.561Z,8.66
2022-12-20T17:01:58.408Z,8.58
2022-12-20T17:04:27.284Z,8.57
2022-12-20T17:06:55.863Z,8.74
2022-12-20T17:12:16.419Z,8.76
2022-12-20T17:14:47.435Z,8.75
2022-12-20T17:17:17.441Z,8.80
2022-12-20T17:19:49.685Z,8.65
2022-12-20T17:25:06.391Z,8.81
2022-12-20T17:27:34.895Z,8.82
2022-12-20T17:30:09.199Z,8.92
2022-12-20T17:32:37.978Z,9.15
2022-12-20T17:35:08.203Z,9.22
2022-12-20T17:37:36.745Z,9.47
2022-12-20T17:40:05.975Z,9.67
2022-12-20T17:42:34.128Z,9.65
2022-12-20T17:45:03.643Z,9.50
2022-12-20T17:47:33.251Z,9.46
2022-12-20T17:50:01.753Z,9.45
2022-12-20T17:52:30.508Z,9.32
2022-12-20T17:54:58.740Z,9.32
2022-12-20T17:57:28.113Z,9.39
2022-12-20T17:59:58.603Z,9.39
2022-12-20T18:02:27.394Z,9.58
2022-12-20T18:04:57.123Z,9.73
2022-12-20T18:07:25.640Z,9.64
2022-12-20T18:09:53.854Z,9.61
2022-12-20T18:12:23.661Z,9.63
2022-12-20T18:14:54.661Z,9.46
2022-12-20T18:17:23.020Z,9.52
2022-12-20T18:19:54.865Z,9.41
2022-12-20T18:22:25.163Z,9.39
2022-12-20T18:24:56.279Z,9.33
2022-12-20T18:27:30.596Z,9.30
2022-12-20T18:30:00.539Z,9.24
2022-12-20T18:32:31.704Z,9.45
2022-12-20T18:35:00.019Z,9.31
2022-12-20T18:37:30.263Z,9.26
2022-12-20T18:39:58.467Z,9.14
2022-12-20T18:42:27.205Z,9.10
2022-12-20T18:44:55.947Z,9.08
2022-12-20T18:47:24.505Z,8.96
2022-12-20T18:49:52.912Z,8.88
2022-12-20T18:52:22.784Z,8.84
2022-12-20T18:54:54.869Z,8.82
2022-12-20T18:57:26.016Z,8.78
2022-12-20T18:59:54.738Z,8.74
2022-12-20T19:02:28.233Z,8.64
2022-12-20T19:04:58.654Z,8.56
2022-12-20T19:07:29.521Z,8.52
2022-12-20T19:09:58.999Z,8.50
2022-12-20T19:12:27.221Z,8.52
2022-12-20T19:14:55.601Z,8.50
2022-12-20T19:17:25.670Z,8.44
2022-12-20T19:19:53.938Z,8.41
2022-12-20T19:22:27.516Z,8.44
2022-12-20T19:24:56.881Z,8.44
2022-12-20T19:27:27.073Z,8.53
2022-12-20T19:29:55.922Z,8.55
2022-12-20T19:32:24.575Z,8.58
2022-12-20T19:34:53.083Z,8.49
2022-12-20T19:37:21.455Z,8.59
2022-12-20T19:39:49.796Z,8.55
2022-12-20T19:42:26.359Z,8.58
2022-12-20T19:44:56.225Z,8.59
2022-12-20T19:47:26.197Z,8.65
2022-12-20T19:49:55.169Z,8.71
2022-12-20T19:52:30.848Z,8.91
2022-12-20T19:54:59.125Z,8.90
2022-12-20T19:57:27.316Z,8.98
2022-12-20T19:59:57.339Z,8.91
2022-12-20T20:02:26.620Z,8.85
2022-12-20T20:04:55.239Z,8.70
2022-12-20T20:07:23.676Z,8.56
2022-12-20T20:09:51.961Z,8.42
2022-12-20T20:12:20.366Z,8.28
2022-12-20T20:14:49.228Z,8.19
2022-12-20T20:17:18.797Z,8.11
2022-12-20T20:19:48.545Z,7.95
2022-12-20T20:22:22.758Z,8.01
2022-12-20T20:24:52.258Z,7.83
2022-12-20T20:27:20.503Z,7.87
2022-12-20T20:29:50.191Z,7.86
2022-12-20T20:32:19.688Z,7.72
2022-12-20T20:34:48.153Z,7.61
2022-12-20T20:37:16.551Z,7.57
2022-12-20T20:39:44.815Z,7.56
2022-12-20T20:42:17.233Z,7.53
2022-12-20T20:44:49.986Z,7.39
2022-12-20T20:47:20.588Z,7.42
2022-12-20T20:49:48.787Z,7.38
2022-12-20T20:52:16.949Z,7.48
2022-12-20T20:54:45.115Z,7.37
2022-12-20T20:57:13.538Z,7.36
2022-12-20T20:59:44.373Z,7.35
2022-12-20T21:02:14.998Z,7.33
2022-12-20T21:05:07.131Z,7.34
2022-12-20T21:07:33.318Z,7.29
2022-12-20T21:10:01.688Z,7.43
2022-12-20T21:12:30.059Z,7.40
2022-12-20T21:17:47.396Z,7.55
2022-12-20T21:20:20.714Z,7.48
2022-12-20T21:22:54.995Z,7.43
2022-12-20T21:25:23.204Z,7.47
2022-12-20T21:27:52.211Z,7.56
2022-12-20T21:30:22.334Z,7.60
2022-12-20T21:32:50.919Z,7.57
2022-12-20T21:35:21.272Z,7.49
2022-12-20T21:37:49.691Z,7.52
2022-12-20T21:40:18.049Z,7.46
2022-12-20T21:42:46.804Z,7.48
2022-12-20T21:45:15.889Z,7.54
2022-12-20T21:47:44.326Z,7.49
2022-12-20T21:50:14.235Z,7.47
2022-12-20T21:52:43.942Z,7.49
2022-12-20T21:55:14.132Z,7.45
2022-12-20T21:57:44.022Z,7.48
2022-12-20T22:00:12.753Z,7.47
2022-12-20T22:02:41.019Z,7.49
2022-12-20T22:05:10.370Z,7.49
2022-12-20T22:07:38.678Z,7.43
2022-12-20T22:10:10.264Z,7.51
2022-12-20T22:12:38.823Z,7.52
2022-12-20T22:15:08.328Z,7.48
2022-12-20T22:17:36.597Z,7.53
2022-12-20T22:20:05.310Z,7.54
2022-12-20T22:22:33.953Z,7.61
2022-12-20T22:25:02.768Z,7.60
2022-12-20T22:27:33.025Z,7.56
2022-12-20T22:30:01.273Z,7.51
2022-12-20T22:32:29.587Z,7.56
2022-12-20T22:34:57.902Z,7.58
2022-12-20T22:37:30.637Z,7.63
2022-12-20T22:39:58.939Z,7.65
2022-12-20T22:42:27.263Z,7.69
2022-12-20T22:44:57.009Z,7.79
2022-12-20T22:47:26.815Z,7.69
2022-12-20T22:49:55.765Z,7.71
2022-12-20T22:52:24.275Z,7.69
2022-12-20T22:54:52.451Z,7.65
2022-12-20T22:57:20.874Z,7.70
2022-12-20T22:59:49.248Z,7.67
2022-12-20T23:02:19.428Z,7.62
2022-12-20T23:04:48.201Z,7.61
2022-12-20T23:07:16.956Z,7.61
2022-12-20T23:09:45.302Z,7.61
2022-12-20T23:12:31.352Z,7.62
2022-12-20T23:15:16.923Z,7.66
2022-12-20T23:17:47.076Z,7.67
2022-12-20T23:20:32.714Z,7.68
2022-12-20T23:23:01.148Z,7.72
2022-12-20T23:25:29.429Z,7.77
2022-12-20T23:27:57.628Z,7.79
2022-12-20T23:30:26.784Z,7.73
2022-12-20T23:32:57.021Z,7.71
2022-12-20T23:35:27.005Z,7.71
2022-12-20T23:37:56.987Z,7.70
2022-12-20T23:40:26.340Z,7.75
2022-12-20T23:42:55.703Z,7.75
2022-12-20T23:45:24.052Z,7.82
2022-12-20T23:47:52.369Z,7.75
2022-12-20T23:50:22.401Z,7.81
2022-12-20T23:52:50.865Z,7.74
2022-12-20T23:55:19.298Z,7.82
2022-12-20T23:57:48.791Z,7.82
